Latest Coastal Weather Observations for Sunshine Coast Airport

IDQ60701

Issued at 6:43 am EST Sunday 26 June 2022 (issued every 10 minutes, with the page automatically refreshed every 10 minutes)

About coastal observations | Map of coastal stations | Coastal observations for QLD | Marine services | Other Formats
Station Details ID: 040861 Name: SUNSHINE COAST AIRPORT Lat: -26.60 Lon: 153.09 Height: 3.42 m
Data from the previous 72 hours. | See also: Recent months at Sunshine Coast Airport
Date/Time
EST
Wind Sea
Height
m
Swell Vis
km
Cloud Weather Temp
°C
Press
MSL
hPa
Rain since
9am
mm
Dir  Spd
kts
Gust
kts
Height
m
Period
s
Dir
26/06:30am WSW 4 4 - - - - 10 Clear - 7.3 1024.2 0.0
26/06:00am SW 5 6 - - - - 10 - - 7.6 1023.9 0.0
26/05:30am W 4 5 - - - - 10 - - 7.5 1023.7 0.0
26/05:00am W 4 5 - - - - 10 - - 7.9 1023.5 0.0
26/04:30am W 4 4 - - - - 10 - - 7.9 1023.2 0.0
26/04:00am W 4 5 - - - - 10 - - 7.8 1023.3 0.0
26/03:30am W 4 5 - - - - 10 - - 8.1 1023.3 0.0
26/03:00am W 4 5 - - - - 10 - - 7.9 1023.4 0.0
26/02:30am W 5 5 - - - - 10 - - 8.0 1023.3 0.0
26/02:00am W 5 5 - - - - 10 - - 7.9 1023.4 0.0
26/01:30am WNW 5 5 - - - - 10 - - 8.0 1023.7 0.0
26/01:00am W 5 6 - - - - 10 - - 8.1 1023.8 0.0
26/12:30am W 5 5 - - - - 10 - - 8.4 1023.8 0.0
26/12:00am W 3 4 - - - - 10 - - 8.4 1023.7 0.0
 
Date/Time
EST
Wind Sea
Height
m
Swell Vis
km
Cloud Weather Temp
°C
Press
MSL
hPa
Rain since
9am
mm
Dir  Spd
kts
Gust
kts
Height
m
Period
s
Dir
25/11:30pm W 4 5 - - - - 10 - - 8.6 1024.0 0.0
25/11:00pm W 4 5 - - - - 10 - - 8.4 1024.1 0.0
25/10:30pm W 3 4 - - - - 10 - - 9.2 1024.2 0.0
25/10:00pm WSW 3 4 - - - - 10 - - 9.4 1024.4 0.0
25/09:30pm W 3 4 - - - - 10 - - 9.6 1024.3 0.0
25/09:00pm WSW 4 5 - - - - 10 - - 10.1 1024.1 0.0
25/08:30pm W 4 5 - - - - 10 - - 10.3 1024.0 0.0
25/08:00pm CALM 0 0 - - - - 10 - - 10.8 1023.5 0.0
25/07:30pm WSW 4 4 - - - - 10 - - 11.9 1023.3 0.0
25/07:00pm WSW 4 5 - - - - 10 - - 11.2 1023.0 0.0
25/06:30pm S 2 4 - - - - 10 - - 12.1 1022.6 0.0
25/06:00pm SSE 3 4 - - - - 10 - - 14.7 1022.4 0.0
25/05:30pm SE 5 7 - - - - 10 - - 16.9 1022.0 0.0
25/05:00pm SE 5 7 - - - - 10 - - 17.6 1021.8 0.0
25/04:30pm SE 6 8 - - - - 10 - - 18.9 1021.6 0.0
25/04:00pm E 5 7 - - - - 10 - - 20.3 1021.5 0.0
25/03:30pm ENE 7 9 - - - - 10 - - 20.9 1021.2 0.0
25/03:00pm ENE 8 10 - - - - 10 - - 21.2 1021.1 0.0
25/02:30pm E 8 9 - - - - 10 - - 21.6 1020.9 0.0
25/02:00pm ENE 8 9 - - - - 10 - - 21.5 1021.0 0.0
25/01:30pm E 7 9 - - - - 10 - - 21.4 1021.0 0.0
25/01:00pm ENE 9 11 - - - - 10 - - 21.5 1021.3 0.0
25/12:30pm NNW 5 7 - - - - 10 - - 22.2 1021.7 0.0
25/12:00pm W 6 11 - - - - 10 - - 22.5 1021.9 0.0
25/11:30am WSW 6 9 - - - - 10 - - 21.9 1022.4 0.0
25/11:00am SW 6 8 - - - - 10 - - 21.4 1022.7 0.0
25/10:30am SW 5 7 - - - - 10 - - 20.7 1023.0 0.0
25/10:00am WSW 3 4 - - - - 10 - - 18.5 1022.9 0.0
25/09:30am W 4 5 - - - - 10 - - 16.8 1022.9 0.0
25/09:00am WSW 4 7 - - - - 10 - - 14.8 1022.9 0.2
25/08:30am WNW 4 5 - - - - 10 - - 12.9 1022.4 0.2
25/08:00am W 4 5 - - - - 10 - - 11.1 1022.4 0.2
25/07:30am W 4 5 - - - - 10 - - 9.5 1022.5 0.2
25/07:26am W 4 5 - - - - 10 - - 9.1 1022.5 0.2
25/07:00am W 5 5 - - - - 0.9 Partly cloudy - 7.2 1022.1 0.2
25/06:57am W 5 5 - - - - 4 Partly cloudy - 6.9 1022.1 0.2
25/06:51am WSW 4 5 - - - - 7 - - 7.3 1021.9 0.2
25/06:30am WSW 3 3 - - - - 1 Partly cloudy - 8.9 1021.6 0.2
25/06:00am WNW 3 4 - - - - 0.5 - - 8.3 1021.5 0.2
25/05:50am WNW 4 4 - - - - 5 - - 8.7 1021.3 0.2
25/05:30am W 5 6 - - - - 10 - - 8.9 1021.1 0.2
25/05:00am WNW 7 7 - - - - 10 - - 9.4 1020.8 0.2
25/04:30am WNW 7 8 - - - - 10 - - 8.9 1020.7 0.2
25/04:00am WNW 6 7 - - - - 10 - - 8.9 1020.4 0.2
25/03:30am WNW 6 7 - - - - 10 - - 9.3 1020.4 0.2
25/03:15am WNW 6 7 - - - - 10 - - 9.4 1020.4 0.2
25/03:00am W 5 5 - - - - 0.5 - - 9.4 1020.4 0.2
25/02:34am W 5 5 - - - - 6 - - 9.6 1020.5 0.2
25/02:30am W 5 5 - - - - 10 - - 9.4 1020.5 0.2
25/02:00am W 5 5 - - - - 10 - - 9.6 1020.6 0.2
25/01:44am W 5 5 - - - - 10 - - 9.4 1020.7 0.2
25/01:30am W 4 5 - - - - 4 - - 9.9 1020.8 0.0
25/01:00am WNW 4 5 - - - - 0.7 - - 10.7 1021.1 0.0
25/12:30am WNW 3 4 - - - - 5 - - 10.9 1021.2 0.0
25/12:06am WNW 4 5 - - - - 4 - - 10.4 1021.4 0.0
25/12:00am WNW 4 5 - - - - 10 - - 10.7 1021.5 0.0
 
Date/Time
EST
Wind Sea
Height
m
Swell Vis
km
Cloud Weather Temp
°C
Press
MSL
hPa
Rain since
9am
mm
Dir  Spd
kts
Gust
kts
Height
m
Period
s
Dir
24/11:30pm WNW 4 5 - - - - 10 - - 11.0 1021.7 0.0
24/11:00pm W 4 5 - - - - 10 - - 10.8 1022.0 0.0
24/10:30pm WNW 5 6 - - - - 10 - - 10.9 1022.1 0.0
24/10:00pm WNW 5 6 - - - - 10 - - 11.5 1022.1 0.0
24/09:30pm W 5 5 - - - - 10 - - 11.4 1022.1 0.0
24/09:00pm WSW 3 5 - - - - 10 - - 12.6 1021.9 0.0
24/08:30pm WSW 2 3 - - - - 10 - - 13.4 1021.9 0.0
24/08:00pm WNW 4 5 - - - - 10 - - 12.8 1021.7 0.0
24/07:30pm WNW 5 6 - - - - 10 - - 14.2 1021.5 0.0
24/07:00pm W 4 5 - - - - 10 - - 14.7 1021.3 0.0
24/06:30pm W 4 5 - - - - 10 - - 15.8 1021.1 0.0
24/06:00pm N 5 6 - - - - 10 - - 16.3 1020.7 0.0
24/05:30pm N 6 7 - - - - 10 - - 16.8 1020.4 0.0
24/05:00pm N 8 11 - - - - 10 - - 18.2 1020.2 0.0
24/04:30pm NNE 9 13 - - - - 10 - - 19.5 1020.0 0.0
24/04:00pm NNE 11 15 - - - - 10 - - 20.2 1019.9 0.0
24/03:30pm NNE 10 13 - - - - 10 - - 21.0 1019.6 0.0
24/03:00pm NNE 12 14 - - - - 10 - - 21.1 1019.5 0.0
24/02:30pm NE 13 16 - - - - 10 - - 21.5 1019.3 0.0
24/02:00pm NE 11 15 - - - - 10 - - 21.8 1019.5 0.0
24/01:30pm NE 11 15 - - - - 10 - - 21.5 1019.7 0.0
24/01:00pm NE 10 12 - - - - 10 Partly cloudy - 21.9 1020.1 0.0
24/12:30pm NE 10 13 - - - - 10 - - 22.5 1020.4 0.0
24/12:00pm NE 9 12 - - - - 10 - - 22.1 1020.9 0.0
24/11:30am NW 5 11 - - - - 10 - - 21.9 1021.5 0.0
24/11:00am NNW 5 8 - - - - 10 - - 22.2 1022.1 0.0
24/10:30am NW 5 7 - - - - 10 - - 21.3 1022.5 0.0
24/10:00am NW 5 7 - - - - 10 - - 20.4 1022.7 0.0
24/09:30am NW 4 5 - - - - 10 - - 17.8 1022.9 0.0
24/09:00am NW 5 6 - - - - 10 - - 15.6 1023.0 0.0
24/08:30am WNW 6 7 - - - - 10 - - 13.7 1022.7 0.0
24/08:00am WNW 5 7 - - - - 10 - - 12.5 1022.6 0.0
24/07:30am WNW 3 5 - - - - 10 - - 10.8 1022.6 0.0
24/07:00am WNW 4 4 - - - - 10 - - 8.7 1022.4 0.0
24/06:58am WNW 4 4 - - - - 10 - - 8.7 1022.4 0.0
24/06:30am WNW 3 3 - - - - 5 - - 9.0 1022.2 0.0
24/06:26am WNW 3 3 - - - - 6 - - 9.2 1022.2 0.0
24/06:00am WNW 4 5 - - - - 8 - - 9.4 1022.0 0.0
24/05:47am WNW 4 5 - - - - 10 - - 8.9 1021.8 0.0
24/05:30am WNW 4 5 - - - - 2 Partly cloudy - 8.5 1021.6 0.0
24/05:00am W 4 5 - - - - 0.6 - - 8.8 1021.3 0.0
24/04:30am W 5 5 - - - - 2 - - 9.3 1021.3 0.0
24/04:04am WNW 5 6 - - - - 6 - - 9.5 1021.4 0.0
24/04:00am WNW 5 6 - - - - 10 - - 9.5 1021.4 0.0
24/03:30am WNW 5 6 - - - - 10 Partly cloudy - 9.4 1021.5 0.0
24/03:00am W 5 6 - - - - 0.5 Mostly clear - 9.3 1021.6 0.0
24/02:46am W 4 5 - - - - 6 Partly cloudy - 9.4 1021.6 0.0
24/02:30am W 5 5 - - - - 10 - - 9.5 1021.7 0.0
24/02:26am W 5 5 - - - - 10 - - 9.5 1021.7 0.0
24/02:00am W 4 5 - - - - 0.5 Partly cloudy - 10.0 1021.9 0.0
24/01:31am W 4 5 - - - - 5 - - 10.2 1022.1 0.0
24/01:30am W 4 5 - - - - 7 - - 10.1 1022.1 0.0
24/01:02am W 5 5 - - - - 10 - - 9.9 1022.3 0.0
24/01:00am W 5 5 - - - - 10 - - 9.9 1022.3 0.0
24/12:34am W 4 5 - - - - 4 - - 10.4 1022.5 0.0
24/12:30am W 4 5 - - - - 10 - - 10.3 1022.5 0.0
24/12:00am W 5 5 - - - - 10 - - 10.1 1022.8 0.0
 
Date/Time
EST
Wind Sea
Height
m
Swell Vis
km
Cloud Weather Temp
°C
Press
MSL
hPa
Rain since
9am
mm
Dir  Spd
kts
Gust
kts
Height
m
Period
s
Dir
23/11:59pm W 5 6 - - - - 10 - - 10.1 1022.8 0.0
23/11:30pm W 4 5 - - - - 2 - - 10.9 1023.0 0.0
23/11:26pm W 4 5 - - - - 4 - - 10.8 1023.0 0.0
23/11:00pm W 4 5 - - - - 10 - - 10.4 1023.2 0.0
23/10:30pm W 4 5 - - - - 10 - - 10.9 1023.3 0.0
23/10:00pm W 4 5 - - - - 10 - - 11.1 1023.5 0.0
23/09:30pm W 4 5 - - - - 10 - - 11.6 1023.6 0.0
23/09:00pm W 3 4 - - - - 10 - - 12.0 1023.6 0.0
23/08:30pm WSW 2 3 - - - - 10 - - 12.1 1023.5 0.0
23/08:00pm WSW 3 4 - - - - 10 - - 12.7 1023.5 0.0
23/07:30pm WSW 2 3 - - - - 10 - - 13.6 1023.3 0.0
23/07:00pm WSW 3 4 - - - - 10 - - 13.8 1023.2 0.0
23/06:30pm WSW 5 6 - - - - 10 - - 14.5 1022.9 0.0
23/06:00pm ESE 4 6 - - - - 10 - - 17.5 1022.4 0.0
23/05:30pm ESE 5 7 - - - - 10 - - 18.0 1022.0 0.0
23/05:00pm E 7 9 - - - - 10 - - 18.4 1022.0 0.0
23/04:30pm ESE 7 8 - - - - 10 - - 19.1 1022.0 0.0
23/04:00pm ESE 7 9 - - - - 10 - - 19.8 1021.9 0.0
23/03:30pm ESE 7 10 - - - - 10 - - 20.2 1021.8 0.0
23/03:00pm ESE 8 10 - - - - 10 - - 20.5 1021.7 0.0
23/02:30pm ESE 8 10 - - - - 10 - - 20.5 1021.7 0.0
23/02:00pm ESE 8 10 - - - - 10 - - 20.5 1022.0 0.0
23/01:30pm SE 8 11 - - - - 10 - - 20.7 1022.5 0.0
23/01:00pm ESE 8 10 - - - - 10 - - 20.6 1022.9 0.0
23/12:30pm ESE 7 9 - - - - 10 - - 21.2 1023.3 0.0
23/12:00pm SE 8 10 - - - - 10 - - 21.2 1023.7 0.0
23/11:30am SE 8 11 - - - - 10 - - 20.8 1024.2 0.0
23/11:00am SSW 7 11 - - - - 10 - - 21.3 1024.8 0.0
23/10:30am SSW 7 10 - - - - 10 - - 20.8 1025.1 0.0
23/10:00am SSW 7 10 - - - - 10 - - 19.7 1025.2 0.0
23/09:30am SW 5 7 - - - - 10 - - 17.8 1025.3 0.0
23/09:00am SSW 4 6 - - - - 10 - - 15.4 1025.3 0.0
23/08:30am W 5 6 - - - - 10 - - 13.4 1025.0 0.0
23/08:00am WSW 4 5 - - - - 10 - - 12.1 1024.9 0.0
23/07:30am SSW 2 3 - - - - 10 - - 10.2 1024.8 0.0
23/07:00am SSW 4 5 - - - - 10 - - 8.8 1024.4 0.0

Other formats

Comma delimited format used in spreadsheet applications
http://www.bom.gov.au/fwo/IDQ60701/IDQ60701.94569.axf

JavaScript Object Notation format (JSON) in row-major order
http://www.bom.gov.au/fwo/IDQ60701/IDQ60701.94569.json

Data quality

Most of these data are generated automatically and are frequently updated. Quality checks on data are not normally performed. It is possible for incorrect values to appear. Refer to information at About Latest Weather Observations and please check the disclaimer before using these data.